sensor_id;sensor_type;location;lat;lon;timestamp;pressure;altitude;pressure_sealevel;temperature;humidity
59686;BME280;45554;51.096;16.976;2022-12-18T00:00:03;101840.06;;;-4.47;79.19
59686;BME280;45554;51.096;16.976;2022-12-18T00:03:00;101845.89;;;-4.47;79.07
59686;BME280;45554;51.096;16.976;2022-12-18T00:05:28;101849.36;;;-4.45;79.02
59686;BME280;45554;51.096;16.976;2022-12-18T00:07:56;101853.98;;;-4.45;79.05
59686;BME280;45554;51.096;16.976;2022-12-18T00:10:24;101852.26;;;-4.46;79.18
59686;BME280;45554;51.096;16.976;2022-12-18T00:12:51;101851.23;;;-4.46;79.15
59686;BME280;45554;51.096;16.976;2022-12-18T00:15:19;101851.77;;;-4.45;79.23
59686;BME280;45554;51.096;16.976;2022-12-18T00:17:47;101854.40;;;-4.43;79.28
59686;BME280;45554;51.096;16.976;2022-12-18T00:20:15;101848.98;;;-4.41;79.16
59686;BME280;45554;51.096;16.976;2022-12-18T00:22:48;101853.34;;;-4.38;79.35
59686;BME280;45554;51.096;16.976;2022-12-18T00:25:16;101858.16;;;-4.38;79.09
59686;BME280;45554;51.096;16.976;2022-12-18T00:27:43;101857.61;;;-4.39;79.14
59686;BME280;45554;51.096;16.976;2022-12-18T00:30:12;101858.73;;;-4.41;79.05
59686;BME280;45554;51.096;16.976;2022-12-18T00:32:40;101866.52;;;-4.44;79.26
59686;BME280;45554;51.096;16.976;2022-12-18T00:35:08;101872.67;;;-4.44;79.46
59686;BME280;45554;51.096;16.976;2022-12-18T00:37:36;101873.22;;;-4.43;79.37
59686;BME280;45554;51.096;16.976;2022-12-18T00:40:05;101873.84;;;-4.40;79.49
59686;BME280;45554;51.096;16.976;2022-12-18T00:42:35;101875.59;;;-4.38;79.30
59686;BME280;45554;51.096;16.976;2022-12-18T00:45:23;101880.95;;;-4.37;79.60
59686;BME280;45554;51.096;16.976;2022-12-18T00:47:51;101883.42;;;-4.34;79.46
59686;BME280;45554;51.096;16.976;2022-12-18T00:50:20;101888.95;;;-4.33;79.38
59686;BME280;45554;51.096;16.976;2022-12-18T00:52:48;101891.17;;;-4.33;79.12
59686;BME280;45554;51.096;16.976;2022-12-18T00:55:16;101893.78;;;-4.32;79.23
59686;BME280;45554;51.096;16.976;2022-12-18T00:57:47;101895.19;;;-4.30;79.17
59686;BME280;45554;51.096;16.976;2022-12-18T01:03:15;101905.60;;;-4.26;79.30
59686;BME280;45554;51.096;16.976;2022-12-18T01:05:45;101910.13;;;-4.24;79.24
59686;BME280;45554;51.096;16.976;2022-12-18T01:08:23;101914.67;;;-4.21;79.38
59686;BME280;45554;51.096;16.976;2022-12-18T01:10:59;101916.92;;;-4.20;79.11
59686;BME280;45554;51.096;16.976;2022-12-18T01:13:32;101921.40;;;-4.19;79.27
59686;BME280;45554;51.096;16.976;2022-12-18T01:16:05;101926.40;;;-4.18;79.45
59686;BME280;45554;51.096;16.976;2022-12-18T01:18:40;101932.20;;;-4.13;79.34
59686;BME280;45554;51.096;16.976;2022-12-18T01:21:13;101935.39;;;-4.10;79.59
59686;BME280;45554;51.096;16.976;2022-12-18T01:23:42;101940.48;;;-4.06;79.38
59686;BME280;45554;51.096;16.976;2022-12-18T01:26:15;101939.58;;;-4.02;79.22
59686;BME280;45554;51.096;16.976;2022-12-18T01:28:49;101943.47;;;-3.98;79.49
59686;BME280;45554;51.096;16.976;2022-12-18T01:31:28;101938.83;;;-3.93;79.17
59686;BME280;45554;51.096;16.976;2022-12-18T01:34:03;101941.55;;;-3.94;78.90
59686;BME280;45554;51.096;16.976;2022-12-18T01:36:37;101948.22;;;-3.94;79.18
59686;BME280;45554;51.096;16.976;2022-12-18T01:39:11;101944.95;;;-3.89;79.06
59686;BME280;45554;51.096;16.976;2022-12-18T01:41:42;101940.68;;;-3.89;79.10
59686;BME280;45554;51.096;16.976;2022-12-18T01:50:15;101941.36;;;-3.94;78.72
59686;BME280;45554;51.096;16.976;2022-12-18T01:52:50;101945.74;;;-3.97;78.68
59686;BME280;45554;51.096;16.976;2022-12-18T01:55:20;101948.77;;;-3.98;78.66
59686;BME280;45554;51.096;16.976;2022-12-18T01:57:52;101954.61;;;-3.98;78.81
59686;BME280;45554;51.096;16.976;2022-12-18T02:00:22;101952.48;;;-3.95;79.23
59686;BME280;45554;51.096;16.976;2022-12-18T02:02:52;101954.50;;;-3.91;79.02
59686;BME280;45554;51.096;16.976;2022-12-18T02:05:40;101953.23;;;-3.87;79.01
59686;BME280;45554;51.096;16.976;2022-12-18T02:08:36;101948.83;;;-3.86;79.05
59686;BME280;45554;51.096;16.976;2022-12-18T02:11:11;101957.45;;;-3.84;79.01
59686;BME280;45554;51.096;16.976;2022-12-18T02:13:59;101961.47;;;-3.81;78.73
59686;BME280;45554;51.096;16.976;2022-12-18T02:28:23;101973.85;;;-3.74;78.44
59686;BME280;45554;51.096;16.976;2022-12-18T02:30:56;101971.85;;;-3.73;78.36
59686;BME280;45554;51.096;16.976;2022-12-18T02:33:30;101970.81;;;-3.73;78.18
59686;BME280;45554;51.096;16.976;2022-12-18T02:35:59;101973.16;;;-3.74;78.28
59686;BME280;45554;51.096;16.976;2022-12-18T02:38:30;101977.88;;;-3.72;78.44
59686;BME280;45554;51.096;16.976;2022-12-18T02:41:05;101983.80;;;-3.68;78.37
59686;BME280;45554;51.096;16.976;2022-12-18T02:43:33;101984.44;;;-3.64;78.41
59686;BME280;45554;51.096;16.976;2022-12-18T02:46:27;101990.14;;;-3.63;78.14
59686;BME280;45554;51.096;16.976;2022-12-18T02:49:04;101993.24;;;-3.62;78.38
59686;BME280;45554;51.096;16.976;2022-12-18T02:51:55;101988.56;;;-3.64;78.08
59686;BME280;45554;51.096;16.976;2022-12-18T02:54:41;101990.00;;;-3.62;78.68
59686;BME280;45554;51.096;16.976;2022-12-18T02:57:21;101989.08;;;-3.59;78.18
59686;BME280;45554;51.096;16.976;2022-12-18T03:00:00;101987.77;;;-3.56;77.94
59686;BME280;45554;51.096;16.976;2022-12-18T03:02:57;101981.80;;;-3.55;78.04
59686;BME280;45554;51.096;16.976;2022-12-18T03:05:41;101981.47;;;-3.55;77.92
59686;BME280;45554;51.096;16.976;2022-12-18T03:08:18;101981.66;;;-3.54;78.00
59686;BME280;45554;51.096;16.976;2022-12-18T03:10:58;101989.45;;;-3.52;78.27
59686;BME280;45554;51.096;16.976;2022-12-18T03:13:36;101994.09;;;-3.52;77.87
59686;BME280;45554;51.096;16.976;2022-12-18T03:16:09;101997.05;;;-3.50;77.83
59686;BME280;45554;51.096;16.976;2022-12-18T03:18:43;101990.38;;;-3.49;77.46
59686;BME280;45554;51.096;16.976;2022-12-18T03:21:16;101995.30;;;-3.51;77.41
59686;BME280;45554;51.096;16.976;2022-12-18T03:23:48;101997.54;;;-3.51;77.52
59686;BME280;45554;51.096;16.976;2022-12-18T03:26:21;101994.25;;;-3.52;77.56
59686;BME280;45554;51.096;16.976;2022-12-18T03:28:56;101997.96;;;-3.53;77.41
59686;BME280;45554;51.096;16.976;2022-12-18T03:31:27;101994.98;;;-3.56;77.71
59686;BME280;45554;51.096;16.976;2022-12-18T03:33:59;101991.80;;;-3.53;77.80
59686;BME280;45554;51.096;16.976;2022-12-18T03:36:35;101996.98;;;-3.52;77.91
59686;BME280;45554;51.096;16.976;2022-12-18T03:39:04;102001.80;;;-3.51;77.60
59686;BME280;45554;51.096;16.976;2022-12-18T03:41:48;102003.48;;;-3.52;77.55
59686;BME280;45554;51.096;16.976;2022-12-18T03:44:41;102006.08;;;-3.52;77.41
59686;BME280;45554;51.096;16.976;2022-12-18T03:47:23;102006.82;;;-3.55;77.35
59686;BME280;45554;51.096;16.976;2022-12-18T03:52:31;102013.13;;;-3.56;77.04
59686;BME280;45554;51.096;16.976;2022-12-18T03:55:05;102020.42;;;-3.59;77.00
59686;BME280;45554;51.096;16.976;2022-12-18T03:57:35;102019.89;;;-3.60;76.96
59686;BME280;45554;51.096;16.976;2022-12-18T04:00:08;102023.23;;;-3.62;76.94
59686;BME280;45554;51.096;16.976;2022-12-18T04:03:01;102029.90;;;-3.63;77.34
59686;BME280;45554;51.096;16.976;2022-12-18T04:05:35;102035.23;;;-3.63;77.03
59686;BME280;45554;51.096;16.976;2022-12-18T04:08:06;102041.20;;;-3.63;77.07
59686;BME280;45554;51.096;16.976;2022-12-18T04:10:38;102040.53;;;-3.63;77.23
59686;BME280;45554;51.096;16.976;2022-12-18T04:13:06;102037.87;;;-3.65;77.00
59686;BME280;45554;51.096;16.976;2022-12-18T04:15:36;102036.26;;;-3.68;77.06
59686;BME280;45554;51.096;16.976;2022-12-18T04:18:05;102031.92;;;-3.69;76.88
59686;BME280;45554;51.096;16.976;2022-12-18T04:20:39;102035.80;;;-3.72;76.88
59686;BME280;45554;51.096;16.976;2022-12-18T04:23:08;102045.88;;;-3.72;76.87
59686;BME280;45554;51.096;16.976;2022-12-18T04:25:36;102052.59;;;-3.72;77.37
59686;BME280;45554;51.096;16.976;2022-12-18T04:28:07;102050.19;;;-3.72;77.02
59686;BME280;45554;51.096;16.976;2022-12-18T04:30:36;102059.63;;;-3.72;76.65
59686;BME280;45554;51.096;16.976;2022-12-18T04:33:12;102051.93;;;-3.76;76.71
59686;BME280;45554;51.096;16.976;2022-12-18T04:35:41;102049.92;;;-3.75;76.79
59686;BME280;45554;51.096;16.976;2022-12-18T04:38:10;102050.25;;;-3.75;76.45
59686;BME280;45554;51.096;16.976;2022-12-18T04:40:38;102052.05;;;-3.78;76.78
59686;BME280;45554;51.096;16.976;2022-12-18T04:43:13;102054.50;;;-3.76;76.88
59686;BME280;45554;51.096;16.976;2022-12-18T04:45:41;102058.32;;;-3.75;76.87
59686;BME280;45554;51.096;16.976;2022-12-18T04:48:09;102063.45;;;-3.75;76.73
59686;BME280;45554;51.096;16.976;2022-12-18T04:50:38;102063.22;;;-3.77;76.74
59686;BME280;45554;51.096;16.976;2022-12-18T04:53:07;102067.48;;;-3.77;76.70
59686;BME280;45554;51.096;16.976;2022-12-18T04:55:36;102068.91;;;-3.76;76.93
59686;BME280;45554;51.096;16.976;2022-12-18T04:58:04;102073.89;;;-3.75;76.97
59686;BME280;45554;51.096;16.976;2022-12-18T05:00:32;102077.39;;;-3.74;76.90
59686;BME280;45554;51.096;16.976;2022-12-18T05:03:01;102077.89;;;-3.73;76.53
59686;BME280;45554;51.096;16.976;2022-12-18T05:05:30;102084.19;;;-3.75;76.45
59686;BME280;45554;51.096;16.976;2022-12-18T05:07:58;102087.58;;;-3.76;76.36
59686;BME280;45554;51.096;16.976;2022-12-18T05:10:26;102085.12;;;-3.78;76.46
59686;BME280;45554;51.096;16.976;2022-12-18T05:12:55;102085.79;;;-3.78;76.42
59686;BME280;45554;51.096;16.976;2022-12-18T05:15:29;102088.46;;;-3.80;76.41
59686;BME280;45554;51.096;16.976;2022-12-18T05:17:58;102089.77;;;-3.82;76.60
59686;BME280;45554;51.096;16.976;2022-12-18T05:20:27;102092.35;;;-3.81;76.52
59686;BME280;45554;51.096;16.976;2022-12-18T05:22:56;102098.03;;;-3.81;76.54
59686;BME280;45554;51.096;16.976;2022-12-18T05:25:24;102097.83;;;-3.82;76.47
59686;BME280;45554;51.096;16.976;2022-12-18T05:27:52;102099.16;;;-3.83;76.55
59686;BME280;45554;51.096;16.976;2022-12-18T05:30:20;102096.33;;;-3.81;76.55
59686;BME280;45554;51.096;16.976;2022-12-18T05:32:48;102100.32;;;-3.80;76.69
59686;BME280;45554;51.096;16.976;2022-12-18T05:35:16;102105.38;;;-3.76;76.88
59686;BME280;45554;51.096;16.976;2022-12-18T05:37:43;102107.76;;;-3.77;76.73
59686;BME280;45554;51.096;16.976;2022-12-18T05:40:12;102112.20;;;-3.77;76.71
59686;BME280;45554;51.096;16.976;2022-12-18T05:42:40;102109.83;;;-3.77;76.61
59686;BME280;45554;51.096;16.976;2022-12-18T05:45:08;102117.41;;;-3.75;76.59
59686;BME280;45554;51.096;16.976;2022-12-18T05:47:37;102122.91;;;-3.75;76.46
59686;BME280;45554;51.096;16.976;2022-12-18T05:50:05;102125.20;;;-3.73;76.49
59686;BME280;45554;51.096;16.976;2022-12-18T05:52:34;102121.89;;;-3.75;76.11
59686;BME280;45554;51.096;16.976;2022-12-18T05:55:02;102117.77;;;-3.80;76.29
59686;BME280;45554;51.096;16.976;2022-12-18T05:57:30;102126.69;;;-3.80;76.17
59686;BME280;45554;51.096;16.976;2022-12-18T05:59:58;102130.74;;;-3.81;76.05
59686;BME280;45554;51.096;16.976;2022-12-18T06:02:26;102133.33;;;-3.81;76.10
59686;BME280;45554;51.096;16.976;2022-12-18T06:04:54;102133.67;;;-3.81;76.16
59686;BME280;45554;51.096;16.976;2022-12-18T06:07:22;102133.34;;;-3.81;76.04
59686;BME280;45554;51.096;16.976;2022-12-18T06:09:51;102133.92;;;-3.79;76.41
59686;BME280;45554;51.096;16.976;2022-12-18T06:12:20;102140.19;;;-3.76;76.02
59686;BME280;45554;51.096;16.976;2022-12-18T06:14:48;102139.55;;;-3.79;75.60
59686;BME280;45554;51.096;16.976;2022-12-18T06:17:16;102144.23;;;-3.83;75.82
59686;BME280;45554;51.096;16.976;2022-12-18T06:19:44;102147.05;;;-3.86;75.58
59686;BME280;45554;51.096;16.976;2022-12-18T06:22:12;102157.23;;;-3.89;75.90
59686;BME280;45554;51.096;16.976;2022-12-18T06:24:41;102155.35;;;-3.89;76.24
59686;BME280;45554;51.096;16.976;2022-12-18T06:27:09;102158.43;;;-3.89;76.19
59686;BME280;45554;51.096;16.976;2022-12-18T06:29:38;102161.08;;;-3.92;75.67
59686;BME280;45554;51.096;16.976;2022-12-18T06:32:06;102163.89;;;-3.94;76.00
59686;BME280;45554;51.096;16.976;2022-12-18T06:34:34;102164.30;;;-3.93;76.21
59686;BME280;45554;51.096;16.976;2022-12-18T06:37:06;102170.21;;;-3.90;76.08
59686;BME280;45554;51.096;16.976;2022-12-18T06:39:34;102179.36;;;-3.88;76.48
59686;BME280;45554;51.096;16.976;2022-12-18T06:42:03;102183.98;;;-3.83;76.77
59686;BME280;45554;51.096;16.976;2022-12-18T06:44:31;102188.01;;;-3.80;76.10
59686;BME280;45554;51.096;16.976;2022-12-18T06:46:59;102184.80;;;-3.79;76.04
59686;BME280;45554;51.096;16.976;2022-12-18T06:49:27;102188.77;;;-3.78;75.93
59686;BME280;45554;51.096;16.976;2022-12-18T06:51:57;102189.06;;;-3.80;75.56
59686;BME280;45554;51.096;16.976;2022-12-18T06:54:25;102187.92;;;-3.83;75.67
59686;BME280;45554;51.096;16.976;2022-12-18T06:56:53;102191.84;;;-3.84;75.62
59686;BME280;45554;51.096;16.976;2022-12-18T06:59:21;102195.53;;;-3.86;75.52
59686;BME280;45554;51.096;16.976;2022-12-18T07:01:49;102197.96;;;-3.85;75.76
59686;BME280;45554;51.096;16.976;2022-12-18T07:04:17;102196.25;;;-3.79;75.86
59686;BME280;45554;51.096;16.976;2022-12-18T07:06:45;102196.08;;;-3.75;75.75
59686;BME280;45554;51.096;16.976;2022-12-18T07:09:13;102197.80;;;-3.75;75.62
59686;BME280;45554;51.096;16.976;2022-12-18T07:11:41;102204.30;;;-3.75;75.45
59686;BME280;45554;51.096;16.976;2022-12-18T07:14:09;102209.77;;;-3.76;75.27
59686;BME280;45554;51.096;16.976;2022-12-18T07:16:38;102210.80;;;-3.80;74.93
59686;BME280;45554;51.096;16.976;2022-12-18T07:19:06;102215.50;;;-3.83;75.18
59686;BME280;45554;51.096;16.976;2022-12-18T07:21:34;102218.85;;;-3.85;75.15
59686;BME280;45554;51.096;16.976;2022-12-18T07:24:02;102216.08;;;-3.87;75.37
59686;BME280;45554;51.096;16.976;2022-12-18T07:26:30;102216.27;;;-3.90;75.24
59686;BME280;45554;51.096;16.976;2022-12-18T07:28:58;102217.78;;;-3.92;75.18
59686;BME280;45554;51.096;16.976;2022-12-18T07:31:27;102222.96;;;-3.90;75.17
59686;BME280;45554;51.096;16.976;2022-12-18T07:33:55;102231.12;;;-3.87;75.40
59686;BME280;45554;51.096;16.976;2022-12-18T07:36:24;102237.48;;;-3.87;75.21
59686;BME280;45554;51.096;16.976;2022-12-18T07:38:53;102238.86;;;-3.86;75.11
59686;BME280;45554;51.096;16.976;2022-12-18T07:41:20;102237.38;;;-3.85;75.08
59686;BME280;45554;51.096;16.976;2022-12-18T07:43:48;102239.98;;;-3.84;74.82
59686;BME280;45554;51.096;16.976;2022-12-18T07:46:17;102239.80;;;-3.84;74.46
59686;BME280;45554;51.096;16.976;2022-12-18T07:48:46;102245.91;;;-3.86;74.26
59686;BME280;45554;51.096;16.976;2022-12-18T07:51:17;102246.77;;;-3.90;74.21
59686;BME280;45554;51.096;16.976;2022-12-18T07:53:46;102246.58;;;-3.96;74.10
59686;BME280;45554;51.096;16.976;2022-12-18T07:56:21;102242.05;;;-3.98;74.50
59686;BME280;45554;51.096;16.976;2022-12-18T07:58:55;102245.62;;;-3.98;74.48
59686;BME280;45554;51.096;16.976;2022-12-18T08:01:23;102253.86;;;-3.98;74.83
59686;BME280;45554;51.096;16.976;2022-12-18T08:03:52;102257.70;;;-3.96;74.53
59686;BME280;45554;51.096;16.976;2022-12-18T08:06:20;102260.98;;;-3.95;74.48
59686;BME280;45554;51.096;16.976;2022-12-18T08:08:54;102258.65;;;-3.93;74.34
59686;BME280;45554;51.096;16.976;2022-12-18T08:11:25;102263.18;;;-3.87;75.15
59686;BME280;45554;51.096;16.976;2022-12-18T08:13:54;102269.11;;;-3.79;74.69
59686;BME280;45554;51.096;16.976;2022-12-18T08:16:22;102266.79;;;-3.72;74.49
59686;BME280;45554;51.096;16.976;2022-12-18T08:18:52;102266.52;;;-3.65;74.62
59686;BME280;45554;51.096;16.976;2022-12-18T08:21:25;102272.48;;;-3.61;74.42
59686;BME280;45554;51.096;16.976;2022-12-18T08:23:56;102280.91;;;-3.55;74.38
59686;BME280;45554;51.096;16.976;2022-12-18T08:26:26;102280.55;;;-3.51;74.60
59686;BME280;45554;51.096;16.976;2022-12-18T08:28:56;102277.77;;;-3.47;73.96
59686;BME280;45554;51.096;16.976;2022-12-18T08:31:25;102277.58;;;-3.48;73.76
59686;BME280;45554;51.096;16.976;2022-12-18T08:33:54;102282.64;;;-3.50;73.59
59686;BME280;45554;51.096;16.976;2022-12-18T08:36:23;102292.06;;;-3.50;73.62
59686;BME280;45554;51.096;16.976;2022-12-18T08:38:52;102292.35;;;-3.52;73.51
59686;BME280;45554;51.096;16.976;2022-12-18T08:41:21;102291.90;;;-3.55;73.08
59686;BME280;45554;51.096;16.976;2022-12-18T08:43:49;102295.47;;;-3.56;72.91
59686;BME280;45554;51.096;16.976;2022-12-18T08:46:39;102296.58;;;-3.58;73.19
59686;BME280;45554;51.096;16.976;2022-12-18T08:49:09;102299.92;;;-3.56;73.34
59686;BME280;45554;51.096;16.976;2022-12-18T08:51:38;102302.16;;;-3.51;73.59
59686;BME280;45554;51.096;16.976;2022-12-18T08:54:08;102307.41;;;-3.43;73.62
59686;BME280;45554;51.096;16.976;2022-12-18T08:56:38;102307.81;;;-3.36;73.36
59686;BME280;45554;51.096;16.976;2022-12-18T08:59:06;102308.80;;;-3.32;73.41
59686;BME280;45554;51.096;16.976;2022-12-18T09:01:34;102312.45;;;-3.26;73.32
59686;BME280;45554;51.096;16.976;2022-12-18T09:04:02;102308.06;;;-3.19;73.40
59686;BME280;45554;51.096;16.976;2022-12-18T09:06:31;102304.31;;;-3.13;72.96
59686;BME280;45554;51.096;16.976;2022-12-18T09:08:59;102302.65;;;-3.07;73.00
59686;BME280;45554;51.096;16.976;2022-12-18T09:11:28;102291.96;;;-3.03;72.81
59686;BME280;45554;51.096;16.976;2022-12-18T09:13:56;102280.73;;;-3.00;72.61
59686;BME280;45554;51.096;16.976;2022-12-18T09:16:25;102275.27;;;-2.99;72.51
59686;BME280;45554;51.096;16.976;2022-12-18T09:18:59;102267.67;;;-2.95;72.54
59686;BME280;45554;51.096;16.976;2022-12-18T09:21:30;102270.50;;;-2.93;72.26
59686;BME280;45554;51.096;16.976;2022-12-18T09:24:04;102266.51;;;-2.89;72.55
59686;BME280;45554;51.096;16.976;2022-12-18T09:26:35;102261.52;;;-2.84;72.21
59686;BME280;45554;51.096;16.976;2022-12-18T09:29:04;102259.56;;;-2.75;72.70
59686;BME280;45554;51.096;16.976;2022-12-18T09:31:33;102252.63;;;-2.66;72.40
59686;BME280;45554;51.096;16.976;2022-12-18T09:34:01;102248.58;;;-2.59;72.17
59686;BME280;45554;51.096;16.976;2022-12-18T09:36:30;102244.50;;;-2.52;72.11
59686;BME280;45554;51.096;16.976;2022-12-18T09:38:58;102239.32;;;-2.47;71.74
59686;BME280;45554;51.096;16.976;2022-12-18T09:47:06;102240.83;;;-2.42;71.32
59686;BME280;45554;51.096;16.976;2022-12-18T09:49:42;102234.54;;;-2.46;70.63
59686;BME280;45554;51.096;16.976;2022-12-18T09:54:55;102235.16;;;-2.48;71.06
59686;BME280;45554;51.096;16.976;2022-12-18T09:57:26;102238.77;;;-2.47;70.63
59686;BME280;45554;51.096;16.976;2022-12-18T10:00:04;102240.85;;;-2.47;71.16
59686;BME280;45554;51.096;16.976;2022-12-18T10:02:38;102240.95;;;-2.39;71.18
59686;BME280;45554;51.096;16.976;2022-12-18T10:05:12;102240.81;;;-2.38;70.51
59686;BME280;45554;51.096;16.976;2022-12-18T10:10:41;102244.71;;;-2.39;70.78
59686;BME280;45554;51.096;16.976;2022-12-18T10:13:17;102246.34;;;-2.37;70.60
59686;BME280;45554;51.096;16.976;2022-12-18T10:15:59;102244.66;;;-2.35;70.70
59686;BME280;45554;51.096;16.976;2022-12-18T10:21:20;102263.64;;;-2.32;70.53
59686;BME280;45554;51.096;16.976;2022-12-18T10:27:11;102260.91;;;-2.31;70.28
59686;BME280;45554;51.096;16.976;2022-12-18T10:29:41;102266.01;;;-2.33;70.48
59686;BME280;45554;51.096;16.976;2022-12-18T10:32:23;102264.88;;;-2.30;70.58
59686;BME280;45554;51.096;16.976;2022-12-18T10:34:54;102260.17;;;-2.27;70.37
59686;BME280;45554;51.096;16.976;2022-12-18T10:37:29;102257.33;;;-2.30;70.00
59686;BME280;45554;51.096;16.976;2022-12-18T10:40:13;102256.37;;;-2.28;70.51
59686;BME280;45554;51.096;16.976;2022-12-18T10:43:12;102253.30;;;-2.21;70.63
59686;BME280;45554;51.096;16.976;2022-12-18T10:45:41;102251.39;;;-2.10;70.62
59686;BME280;45554;51.096;16.976;2022-12-18T10:48:19;102246.66;;;-2.07;69.93
59686;BME280;45554;51.096;16.976;2022-12-18T10:50:49;102244.10;;;-2.13;69.35
59686;BME280;45554;51.096;16.976;2022-12-18T10:53:40;102246.30;;;-2.20;69.46
59686;BME280;45554;51.096;16.976;2022-12-18T10:56:09;102242.91;;;-2.24;69.45
59686;BME280;45554;51.096;16.976;2022-12-18T10:58:38;102243.77;;;-2.30;69.13
59686;BME280;45554;51.096;16.976;2022-12-18T11:01:16;102252.73;;;-2.35;69.29
59686;BME280;45554;51.096;16.976;2022-12-18T11:03:47;102259.30;;;-2.33;69.71
59686;BME280;45554;51.096;16.976;2022-12-18T11:06:29;102253.33;;;-2.33;69.60
59686;BME280;45554;51.096;16.976;2022-12-18T11:09:04;102258.79;;;-2.39;69.03
59686;BME280;45554;51.096;16.976;2022-12-18T11:11:48;102267.23;;;-2.49;69.10
59686;BME280;45554;51.096;16.976;2022-12-18T11:14:21;102267.51;;;-2.52;69.74
59686;BME280;45554;51.096;16.976;2022-12-18T11:16:51;102270.52;;;-2.48;69.92
59686;BME280;45554;51.096;16.976;2022-12-18T11:19:41;102281.91;;;-2.41;70.12
59686;BME280;45554;51.096;16.976;2022-12-18T11:22:27;102274.84;;;-2.42;69.68
59686;BME280;45554;51.096;16.976;2022-12-18T11:28:05;102295.55;;;-2.33;69.88
59686;BME280;45554;51.096;16.976;2022-12-18T11:30:37;102295.47;;;-2.25;69.75
59686;BME280;45554;51.096;16.976;2022-12-18T11:33:11;102290.80;;;-2.20;69.78
59686;BME280;45554;51.096;16.976;2022-12-18T11:35:55;102285.52;;;-2.13;69.82
59686;BME280;45554;51.096;16.976;2022-12-18T11:38:35;102283.52;;;-2.04;69.39
59686;BME280;45554;51.096;16.976;2022-12-18T11:46:31;102259.17;;;-1.96;69.03
59686;BME280;45554;51.096;16.976;2022-12-18T11:49:20;102254.77;;;-1.94;68.91
59686;BME280;45554;51.096;16.976;2022-12-18T11:51:56;102255.44;;;-1.95;68.64
59686;BME280;45554;51.096;16.976;2022-12-18T11:54:27;102252.64;;;-1.96;68.49
59686;BME280;45554;51.096;16.976;2022-12-18T12:07:48;102245.88;;;-1.99;68.23
59686;BME280;45554;51.096;16.976;2022-12-18T12:10:49;102243.67;;;-2.04;68.18
59686;BME280;45554;51.096;16.976;2022-12-18T12:21:46;102244.15;;;-2.05;68.51
59686;BME280;45554;51.096;16.976;2022-12-18T12:30:10;102243.13;;;-2.22;67.73
59686;BME280;45554;51.096;16.976;2022-12-18T12:33:11;102243.13;;;-2.34;67.87
59686;BME280;45554;51.096;16.976;2022-12-18T12:38:43;102240.76;;;-2.45;68.50
59686;BME280;45554;51.096;16.976;2022-12-18T12:41:23;102233.27;;;-2.48;68.65
59686;BME280;45554;51.096;16.976;2022-12-18T12:44:24;102231.83;;;-2.51;68.59
59686;BME280;45554;51.096;16.976;2022-12-18T12:46:56;102232.04;;;-2.55;68.38
59686;BME280;45554;51.096;16.976;2022-12-18T12:49:29;102233.73;;;-2.55;68.87
59686;BME280;45554;51.096;16.976;2022-12-18T12:52:28;102231.11;;;-2.52;69.03
59686;BME280;45554;51.096;16.976;2022-12-18T12:54:59;102237.66;;;-2.45;69.06
59686;BME280;45554;51.096;16.976;2022-12-18T12:57:34;102238.01;;;-2.45;68.94
59686;BME280;45554;51.096;16.976;2022-12-18T13:00:18;102246.67;;;-2.48;68.79
59686;BME280;45554;51.096;16.976;2022-12-18T13:05:45;102249.45;;;-2.64;68.55
59686;BME280;45554;51.096;16.976;2022-12-18T13:08:27;102247.34;;;-2.71;68.82
59686;BME280;45554;51.096;16.976;2022-12-18T13:11:01;102244.11;;;-2.81;68.78
59686;BME280;45554;51.096;16.976;2022-12-18T13:13:53;102240.31;;;-2.86;69.35
59686;BME280;45554;51.096;16.976;2022-12-18T13:16:24;102237.63;;;-2.85;69.38
59686;BME280;45554;51.096;16.976;2022-12-18T13:18:54;102236.40;;;-2.86;69.31
59686;BME280;45554;51.096;16.976;2022-12-18T13:21:27;102236.52;;;-2.88;69.29
59686;BME280;45554;51.096;16.976;2022-12-18T13:24:14;102241.20;;;-2.92;69.43
59686;BME280;45554;51.096;16.976;2022-12-18T13:26:43;102234.41;;;-2.89;69.56
59686;BME280;45554;51.096;16.976;2022-12-18T13:29:11;102231.64;;;-2.90;69.62
59686;BME280;45554;51.096;16.976;2022-12-18T13:34:22;102237.39;;;-2.93;69.51
59686;BME280;45554;51.096;16.976;2022-12-18T13:36:57;102244.98;;;-2.92;69.96
59686;BME280;45554;51.096;16.976;2022-12-18T13:39:44;102250.84;;;-2.91;69.69
59686;BME280;45554;51.096;16.976;2022-12-18T13:45:01;102253.58;;;-2.96;69.70
59686;BME280;45554;51.096;16.976;2022-12-18T13:47:34;102252.61;;;-2.99;69.67
59686;BME280;45554;51.096;16.976;2022-12-18T13:50:23;102261.15;;;-3.01;69.76
59686;BME280;45554;51.096;16.976;2022-12-18T13:52:59;102271.17;;;-3.04;69.93
59686;BME280;45554;51.096;16.976;2022-12-18T13:55:27;102273.02;;;-3.10;69.71
59686;BME280;45554;51.096;16.976;2022-12-18T13:58:05;102269.83;;;-3.13;69.92
59686;BME280;45554;51.096;16.976;2022-12-18T14:00:34;102274.89;;;-3.21;69.86
59686;BME280;45554;51.096;16.976;2022-12-18T14:03:15;102275.51;;;-3.28;69.90
59686;BME280;45554;51.096;16.976;2022-12-18T14:05:55;102270.41;;;-3.36;70.17
59686;BME280;45554;51.096;16.976;2022-12-18T14:08:28;102272.05;;;-3.39;70.63
59686;BME280;45554;51.096;16.976;2022-12-18T14:10:59;102273.57;;;-3.40;70.65
59686;BME280;45554;51.096;16.976;2022-12-18T14:13:32;102282.07;;;-3.42;70.63
59686;BME280;45554;51.096;16.976;2022-12-18T14:16:04;102288.50;;;-3.44;70.82
59686;BME280;45554;51.096;16.976;2022-12-18T14:21:18;102295.00;;;-3.50;70.97
59686;BME280;45554;51.096;16.976;2022-12-18T14:23:47;102300.22;;;-3.52;71.19
59686;BME280;45554;51.096;16.976;2022-12-18T14:26:27;102302.80;;;-3.56;70.88
59686;BME280;45554;51.096;16.976;2022-12-18T14:28:59;102304.91;;;-3.65;70.75
59686;BME280;45554;51.096;16.976;2022-12-18T14:31:31;102310.41;;;-3.69;71.35
59686;BME280;45554;51.096;16.976;2022-12-18T14:33:59;102317.77;;;-3.69;71.48
59686;BME280;45554;51.096;16.976;2022-12-18T14:36:28;102322.26;;;-3.74;71.20